createdAt,value
2017-05-09T00:00:29.325Z,1021.18
2017-05-09T00:01:38.408Z,1021.22
2017-05-09T00:02:48.441Z,1021.15
2017-05-09T00:03:58.161Z,1021.16
2017-05-09T00:05:07.875Z,1021.15
2017-05-09T00:06:17.272Z,1021.15
2017-05-09T00:07:27.303Z,1021.15
2017-05-09T00:08:37.334Z,1021.14
2017-05-09T00:09:47.052Z,1021.17
2017-05-09T00:10:57.446Z,1021.14
2017-05-09T00:12:07.517Z,1021.14
2017-05-09T00:13:17.234Z,1021.15
2017-05-09T00:14:26.956Z,1021.19
2017-05-09T00:15:36.983Z,1021.18
2017-05-09T00:16:46.692Z,1021.15
2017-05-09T00:17:56.724Z,1021.15
2017-05-09T00:19:06.447Z,1021.18
2017-05-09T00:20:16.155Z,1021.17
2017-05-09T00:21:25.865Z,1021.16
2017-05-09T00:22:35.576Z,1021.13
2017-05-09T00:23:45.610Z,1021.19
2017-05-09T00:24:55.643Z,1021.14
2017-05-09T00:26:05.683Z,1021.11
2017-05-09T00:27:15.704Z,1021.08
2017-05-09T00:28:25.738Z,1021.08
2017-05-09T00:29:35.138Z,1021.02
2017-05-09T00:30:45.198Z,1021.02
2017-05-09T00:31:54.913Z,1021.06
2017-05-09T00:33:04.346Z,1020.98
2017-05-09T00:34:14.377Z,1021.02
2017-05-09T00:35:24.728Z,1020.98
2017-05-09T00:36:34.760Z,1021
2017-05-09T00:37:44.791Z,1021
2017-05-09T00:38:54.827Z,1020.94
2017-05-09T00:40:05.178Z,1020.93
2017-05-09T00:41:15.517Z,1020.97
2017-05-09T00:42:25.223Z,1020.98
2017-05-09T00:43:34.308Z,1020.96
2017-05-09T00:44:44.351Z,1020.92
2017-05-09T00:45:54.691Z,1020.93
2017-05-09T00:47:04.727Z,1020.93
2017-05-09T00:48:14.439Z,1020.97
2017-05-09T00:49:23.853Z,1020.95
2017-05-09T00:50:33.882Z,1020.92
2017-05-09T00:51:43.601Z,1020.94
2017-05-09T00:52:53.631Z,1020.95
2017-05-09T00:54:03.669Z,1020.88
2017-05-09T00:55:13.077Z,1020.91
2017-05-09T00:56:22.477Z,1020.91
2017-05-09T00:57:31.883Z,1020.84
2017-05-09T00:58:41.915Z,1020.87
2017-05-09T00:59:51.625Z,1020.88
2017-05-09T01:01:01.345Z,1020.87
2017-05-09T01:02:11.375Z,1020.83
2017-05-09T01:03:21.412Z,1020.83
2017-05-09T01:04:31.445Z,1020.82
2017-05-09T01:05:40.841Z,1020.83
2017-05-09T01:06:51.175Z,1020.82
2017-05-09T01:08:01.529Z,1020.83
2017-05-09T01:09:10.931Z,1020.82
2017-05-09T01:10:20.649Z,1020.85
2017-05-09T01:11:30.043Z,1020.83
2017-05-09T01:12:39.755Z,1020.84
2017-05-09T01:13:49.481Z,1020.88
2017-05-09T01:14:58.902Z,1020.89
2017-05-09T01:16:08.941Z,1020.86
2017-05-09T01:17:18.972Z,1020.86
2017-05-09T01:18:29.001Z,1020.86
2017-05-09T01:19:38.714Z,1020.84
2017-05-09T01:20:48.113Z,1020.91
2017-05-09T01:21:57.523Z,1020.9
2017-05-09T01:23:07.547Z,1020.87
2017-05-09T01:24:16.642Z,1020.81
2017-05-09T01:25:26.990Z,1020.85
2017-05-09T01:26:36.689Z,1020.87
2017-05-09T01:27:45.768Z,1020.85
2017-05-09T01:28:55.492Z,1020.84
2017-05-09T01:30:04.897Z,1020.82
2017-05-09T01:31:15.240Z,1020.79
2017-05-09T01:32:25.624Z,1020.84
2017-05-09T01:33:35.344Z,1020.87
2017-05-09T01:34:44.747Z,1020.84
2017-05-09T01:35:54.146Z,1020.92
2017-05-09T01:37:03.896Z,1020.83
2017-05-09T01:38:13.620Z,1020.86
2017-05-09T01:39:23.342Z,1020.83
2017-05-09T01:40:33.696Z,1020.83
2017-05-09T01:41:43.724Z,1020.81
2017-05-09T01:42:53.127Z,1020.81
2017-05-09T01:44:02.218Z,1020.85
2017-05-09T01:45:11.621Z,1020.81
2017-05-09T01:46:21.017Z,1020.75
2017-05-09T01:47:30.725Z,1020.71
2017-05-09T01:48:40.760Z,1020.71
2017-05-09T01:49:50.489Z,1020.7
2017-05-09T01:51:00.212Z,1020.74
2017-05-09T01:52:09.948Z,1020.7
2017-05-09T01:53:19.970Z,1020.69
2017-05-09T01:54:29.693Z,1020.72
2017-05-09T01:55:40.035Z,1020.7
2017-05-09T01:56:49.436Z,1020.68
2017-05-09T01:57:59.461Z,1020.67
2017-05-09T01:59:09.511Z,1020.64
2017-05-09T02:00:19.228Z,1020.63
2017-05-09T02:01:29.253Z,1020.66
2017-05-09T02:02:39.281Z,1020.67
2017-05-09T02:03:48.996Z,1020.66
2017-05-09T02:04:59.345Z,1020.63
2017-05-09T02:06:09.690Z,1020.65
2017-05-09T02:07:19.410Z,1020.66
2017-05-09T02:08:29.436Z,1020.65
2017-05-09T02:09:39.468Z,1020.65
2017-05-09T02:10:48.874Z,1020.61
2017-05-09T02:11:58.587Z,1020.64
2017-05-09T02:13:08.933Z,1020.69
2017-05-09T02:14:18.962Z,1020.66
2017-05-09T02:15:28.999Z,1020.69
2017-05-09T02:16:39.035Z,1020.67
2017-05-09T02:17:49.077Z,1020.7
2017-05-09T02:18:58.793Z,1020.67
2017-05-09T02:20:08.830Z,1020.7
2017-05-09T02:21:18.863Z,1020.67
2017-05-09T02:22:28.265Z,1020.72
2017-05-09T02:23:38.292Z,1020.7
2017-05-09T02:24:48.339Z,1020.75
2017-05-09T02:25:58.374Z,1020.72
2017-05-09T02:27:08.089Z,1020.75
2017-05-09T02:28:17.797Z,1020.67
2017-05-09T02:29:27.194Z,1020.72
2017-05-09T02:30:36.907Z,1020.73
2017-05-09T02:31:46.635Z,1020.73
2017-05-09T02:32:56.349Z,1020.79
2017-05-09T02:34:05.746Z,1020.78
2017-05-09T02:35:15.457Z,1020.75
2017-05-09T02:36:25.514Z,1020.72
2017-05-09T02:37:35.552Z,1020.72
2017-05-09T02:38:45.578Z,1020.72
2017-05-09T02:39:54.988Z,1020.7
2017-05-09T02:41:05.014Z,1020.63
2017-05-09T02:42:14.718Z,1020.69
2017-05-09T02:43:24.739Z,1020.69
2017-05-09T02:44:34.773Z,1020.61
2017-05-09T02:45:44.809Z,1020.57
2017-05-09T02:46:54.529Z,1020.58
2017-05-09T02:48:04.238Z,1020.52
2017-05-09T02:49:14.279Z,1020.51
2017-05-09T02:50:23.995Z,1020.55
2017-05-09T02:51:33.709Z,1020.58
2017-05-09T02:52:43.424Z,1020.59
2017-05-09T02:53:53.142Z,1020.56
2017-05-09T02:55:02.868Z,1020.57
2017-05-09T02:56:12.588Z,1020.6
2017-05-09T02:57:21.994Z,1020.62
2017-05-09T02:58:32.340Z,1020.62
2017-05-09T02:59:42.058Z,1020.67
2017-05-09T03:00:51.808Z,1020.71
2017-05-09T03:02:01.514Z,1020.62
2017-05-09T03:03:11.538Z,1020.59
2017-05-09T03:04:20.939Z,1020.63
2017-05-09T03:05:30.983Z,1020.61
2017-05-09T03:06:40.695Z,1020.58
2017-05-09T03:07:49.776Z,1020.58
2017-05-09T03:08:59.182Z,1020.56
2017-05-09T03:10:09.534Z,1020.53
2017-05-09T03:11:19.250Z,1020.54
2017-05-09T03:12:28.651Z,1020.49
2017-05-09T03:13:38.374Z,1020.49
2017-05-09T03:14:48.406Z,1020.46
2017-05-09T03:15:58.433Z,1020.43
2017-05-09T03:17:08.780Z,1020.47
2017-05-09T03:18:18.486Z,1020.48
2017-05-09T03:19:28.523Z,1020.45
2017-05-09T03:20:38.239Z,1020.49
2017-05-09T03:21:48.266Z,1020.49
2017-05-09T03:22:57.986Z,1020.5
2017-05-09T03:24:08.022Z,1020.47
2017-05-09T03:25:18.042Z,1020.45
2017-05-09T03:26:28.067Z,1020.51
2017-05-09T03:27:37.779Z,1020.51
2017-05-09T03:28:47.820Z,1020.51
2017-05-09T03:29:58.158Z,1020.53
2017-05-09T03:31:08.189Z,1020.59
2017-05-09T03:32:17.901Z,1020.56
2017-05-09T03:33:27.613Z,1020.51
2017-05-09T03:34:37.960Z,1020.54
2017-05-09T03:35:47.361Z,1020.52
2017-05-09T03:36:57.076Z,1020.5
2017-05-09T03:38:07.439Z,1020.45
2017-05-09T03:39:17.152Z,1020.48
2017-05-09T03:40:26.886Z,1020.49
2017-05-09T03:41:36.592Z,1020.41
2017-05-09T03:42:45.979Z,1020.45
2017-05-09T03:43:55.696Z,1020.45
2017-05-09T03:45:06.033Z,1020.43
2017-05-09T03:46:15.110Z,1020.45
2017-05-09T03:47:24.508Z,1020.45
2017-05-09T03:48:34.532Z,1020.43
2017-05-09T03:49:44.878Z,1020.44
2017-05-09T03:50:54.915Z,1020.44
2017-05-09T03:52:04.617Z,1020.44
2017-05-09T03:53:14.649Z,1020.45
2017-05-09T03:54:24.723Z,1020.42
2017-05-09T03:55:34.763Z,1020.42
2017-05-09T03:56:44.483Z,1020.44
2017-05-09T03:57:54.515Z,1020.4
2017-05-09T03:59:03.911Z,1020.39
2017-05-09T04:00:13.620Z,1020.45
2017-05-09T04:01:23.332Z,1020.44
2017-05-09T04:02:33.049Z,1020.42
2017-05-09T04:03:43.075Z,1020.43
2017-05-09T04:04:52.782Z,1020.39
2017-05-09T04:06:02.498Z,1020.45
2017-05-09T04:07:12.216Z,1020.42
2017-05-09T04:08:22.253Z,1020.39
2017-05-09T04:09:31.970Z,1020.38
2017-05-09T04:10:41.995Z,1020.41
2017-05-09T04:11:51.390Z,1020.4
2017-05-09T04:13:00.779Z,1020.43
2017-05-09T04:14:09.860Z,1020.43
2017-05-09T04:15:19.901Z,1020.42
2017-05-09T04:16:29.620Z,1020.43
2017-05-09T04:17:39.331Z,1020.48
2017-05-09T04:18:49.045Z,1020.45
2017-05-09T04:19:59.397Z,1020.45
2017-05-09T04:21:09.128Z,1020.48
2017-05-09T04:22:18.851Z,1020.43
2017-05-09T04:23:28.573Z,1020.45
2017-05-09T04:24:38.293Z,1020.44
2017-05-09T04:25:48.324Z,1020.49
2017-05-09T04:26:58.672Z,1020.4
2017-05-09T04:28:09.026Z,1020.37
2017-05-09T04:29:18.738Z,1020.42
2017-05-09T04:30:28.772Z,1020.45
2017-05-09T04:31:38.175Z,1020.42
2017-05-09T04:32:48.524Z,1020.46
2017-05-09T04:33:58.235Z,1020.45
2017-05-09T04:35:07.948Z,1020.46
2017-05-09T04:36:17.337Z,1020.43
2017-05-09T04:37:27.392Z,1020.46
2017-05-09T04:38:37.421Z,1020.46
2017-05-09T04:39:47.464Z,1020.44
2017-05-09T04:40:57.182Z,1020.45
2017-05-09T04:42:06.903Z,1020.41
2017-05-09T04:43:16.306Z,1020.46
2017-05-09T04:44:26.661Z,1020.46
2017-05-09T04:45:37.001Z,1020.45
2017-05-09T04:46:46.398Z,1020.49
2017-05-09T04:47:55.790Z,1020.5
2017-05-09T04:49:05.514Z,1020.46
2017-05-09T04:50:15.226Z,1020.47
2017-05-09T04:51:24.936Z,1020.48
2017-05-09T04:52:34.968Z,1020.39
2017-05-09T04:53:44.370Z,1020.42
2017-05-09T04:54:53.769Z,1020.39
2017-05-09T04:56:03.171Z,1020.43
2017-05-09T04:57:12.878Z,1020.47
2017-05-09T04:58:22.913Z,1020.46
2017-05-09T04:59:32.630Z,1020.4
2017-05-09T05:00:42.350Z,1020.43
2017-05-09T05:01:52.373Z,1020.39
2017-05-09T05:03:02.720Z,1020.44
2017-05-09T05:04:12.735Z,1020.41
2017-05-09T05:05:22.766Z,1020.35
2017-05-09T05:06:32.167Z,1020.47
2017-05-09T05:07:42.199Z,1020.47
2017-05-09T05:08:51.601Z,1020.45
2017-05-09T05:10:01.007Z,1020.49
2017-05-09T05:11:10.403Z,1020.51
2017-05-09T05:12:19.174Z,1020.5
2017-05-09T05:13:28.891Z,1020.45
2017-05-09T05:14:38.616Z,1020.44
2017-05-09T05:15:47.696Z,1020.49
2017-05-09T05:16:57.726Z,1020.41
2017-05-09T05:18:07.432Z,1020.41
2017-05-09T05:19:17.455Z,1020.42
2017-05-09T05:20:27.490Z,1020.39
2017-05-09T05:21:37.209Z,1020.38
2017-05-09T05:22:46.607Z,1020.35
2017-05-09T05:23:56.334Z,1020.25
2017-05-09T05:25:05.742Z,1020.26
2017-05-09T05:26:15.153Z,1020.23
2017-05-09T05:27:25.191Z,1020.21
2017-05-09T05:28:35.538Z,1020.2
2017-05-09T05:29:45.253Z,1020.19
2017-05-09T05:30:55.277Z,1020.22
2017-05-09T05:32:05.644Z,1020.27
2017-05-09T05:33:15.396Z,1020.27
2017-05-09T05:34:24.801Z,1020.31
2017-05-09T05:35:34.836Z,1020.37
2017-05-09T05:36:44.245Z,1020.37
2017-05-09T05:37:53.652Z,1020.39
2017-05-09T05:39:03.371Z,1020.41
2017-05-09T05:40:13.097Z,1020.43
2017-05-09T05:41:22.817Z,1020.43
2017-05-09T05:42:32.219Z,1020.38
2017-05-09T05:43:41.629Z,1020.44
2017-05-09T05:44:51.655Z,1020.43
2017-05-09T05:46:01.682Z,1020.42
2017-05-09T05:47:11.716Z,1020.44
2017-05-09T05:48:21.746Z,1020.46
2017-05-09T05:49:31.463Z,1020.42
2017-05-09T05:50:41.816Z,1020.42
2017-05-09T05:51:51.540Z,1020.46
2017-05-09T05:53:01.567Z,1020.44
2017-05-09T05:54:10.962Z,1020.4
2017-05-09T05:55:20.992Z,1020.44
2017-05-09T05:56:31.021Z,1020.41
2017-05-09T05:57:40.737Z,1020.44
2017-05-09T05:58:50.447Z,1020.45
2017-05-09T06:00:00.480Z,1020.45
2017-05-09T06:01:10.196Z,1020.44
2017-05-09T06:02:19.918Z,1020.47
2017-05-09T06:03:29.636Z,1020.46
2017-05-09T06:04:38.747Z,1020.43
2017-05-09T06:05:48.140Z,1020.45
2017-05-09T06:06:58.496Z,1020.47
2017-05-09T06:08:07.891Z,1020.43
2017-05-09T06:09:17.294Z,1020.47
2017-05-09T06:10:27.019Z,1020.43
2017-05-09T06:11:37.362Z,1020.44
2017-05-09T06:12:47.700Z,1020.5
2017-05-09T06:13:57.781Z,1020.49
2017-05-09T06:15:07.193Z,1020.47
2017-05-09T06:16:17.221Z,1020.45
2017-05-09T06:17:26.944Z,1020.51
2017-05-09T06:18:36.352Z,1020.48
2017-05-09T06:19:46.703Z,1020.52
2017-05-09T06:20:56.753Z,1020.51
2017-05-09T06:22:05.852Z,1020.54
2017-05-09T06:23:15.567Z,1020.55
2017-05-09T06:24:24.971Z,1020.55
2017-05-09T06:25:35.023Z,1020.54
2017-05-09T06:26:44.425Z,1020.56
2017-05-09T06:27:53.835Z,1020.6
2017-05-09T06:29:03.874Z,1020.61
2017-05-09T06:30:13.907Z,1020.65
2017-05-09T06:31:23.630Z,1020.58
2017-05-09T06:32:33.345Z,1020.6
2017-05-09T06:33:43.070Z,1020.59
2017-05-09T06:34:51.853Z,1020.6
2017-05-09T06:36:02.228Z,1020.6
2017-05-09T06:37:12.261Z,1020.7
2017-05-09T06:38:21.664Z,1020.6
2017-05-09T06:39:31.385Z,1020.65
2017-05-09T06:40:41.097Z,1020.73
2017-05-09T06:41:51.126Z,1020.69
2017-05-09T06:43:01.158Z,1020.7
2017-05-09T06:44:10.565Z,1020.68
2017-05-09T06:45:20.946Z,1020.77
2017-05-09T06:46:30.343Z,1020.72
2017-05-09T06:47:39.749Z,1020.74
2017-05-09T06:48:49.162Z,1021.14
2017-05-09T06:49:59.518Z,1021.7
2017-05-09T06:51:08.914Z,1022.18
2017-05-09T06:52:18.619Z,1022.23
2017-05-09T06:53:28.355Z,1022.4
2017-05-09T06:54:38.388Z,1022.73
2017-05-09T06:55:47.790Z,1023.03
2017-05-09T06:56:57.548Z,1023.25
2017-05-09T06:58:07.588Z,1023.33
2017-05-09T06:59:17.628Z,1023.63
2017-05-09T07:00:27.040Z,1023.84
2017-05-09T07:01:36.442Z,1024.15
2017-05-09T07:02:46.163Z,1024.32
2017-05-09T07:03:55.896Z,1024.49
2017-05-09T07:05:05.619Z,1024.82
2017-05-09T07:06:15.336Z,1025.16
2017-05-09T07:07:25.368Z,1025.18
2017-05-09T07:08:35.090Z,1025.64
2017-05-09T07:09:44.494Z,1025.53
2017-05-09T07:10:54.527Z,1025.92
2017-05-09T07:12:03.939Z,1026.02
2017-05-09T07:13:13.035Z,1026.01
2017-05-09T07:14:23.108Z,1025.93
2017-05-09T07:15:32.516Z,1026.08
2017-05-09T07:16:42.876Z,1026.56
2017-05-09T07:17:53.238Z,1026.86
2017-05-09T07:19:02.967Z,1026.74
2017-05-09T07:20:13.014Z,1026.71
2017-05-09T07:21:23.058Z,1026.49
2017-05-09T07:22:33.106Z,1026.44
2017-05-09T07:23:42.831Z,1026.72
2017-05-09T07:24:52.873Z,1026.91
2017-05-09T07:26:02.601Z,1026.54
2017-05-09T07:27:12.645Z,1023.71
2017-05-09T07:28:22.362Z,1020.93
2017-05-09T07:29:32.411Z,1020.72
2017-05-09T07:30:42.457Z,1020.65
2017-05-09T07:31:52.490Z,1020.68
2017-05-09T07:33:02.533Z,1020.7
2017-05-09T07:34:11.313Z,1020.6
2017-05-09T07:35:20.723Z,1020.64
2017-05-09T07:36:30.769Z,1020.6
2017-05-09T07:37:40.806Z,1020.6
2017-05-09T07:38:50.525Z,1020.6
2017-05-09T07:40:00.254Z,1020.56
2017-05-09T07:41:10.294Z,1020.62
2017-05-09T07:42:19.701Z,1020.62
2017-05-09T07:43:29.466Z,1020.65
2017-05-09T07:44:39.511Z,1020.61
2017-05-09T07:45:49.872Z,1020.61
2017-05-09T07:46:59.908Z,1020.62
2017-05-09T07:48:09.321Z,1020.71
2017-05-09T07:49:19.368Z,1020.7
2017-05-09T07:50:29.104Z,1021.28
2017-05-09T07:51:39.461Z,1023.99
2017-05-09T07:52:48.866Z,1025.29
2017-05-09T07:53:58.903Z,1025.24
2017-05-09T07:55:09.260Z,1025.06
2017-05-09T07:56:18.980Z,1024.76
2017-05-09T07:57:28.699Z,1024.55
2017-05-09T07:58:38.739Z,1024.12
2017-05-09T07:59:48.788Z,1023.97
2017-05-09T08:00:58.833Z,1023.85
2017-05-09T08:02:08.572Z,1023.74
2017-05-09T08:03:18.618Z,1023.97
2017-05-09T08:04:28.666Z,1024.06
2017-05-09T08:05:38.401Z,1023.83
2017-05-09T08:06:48.435Z,1023.86
2017-05-09T08:07:58.477Z,1023.66
2017-05-09T08:09:08.192Z,1024
2017-05-09T08:10:18.230Z,1024.24
2017-05-09T08:11:28.590Z,1024.19
2017-05-09T08:12:38.324Z,1023.62
2017-05-09T08:13:48.410Z,1023.68
2017-05-09T08:14:58.142Z,1023.53
2017-05-09T08:16:07.556Z,1023.5
2017-05-09T08:17:17.598Z,1023.69
2017-05-09T08:18:27.637Z,1023.5
2017-05-09T08:19:37.373Z,1023.52
2017-05-09T08:20:46.795Z,1023.07
2017-05-09T08:21:55.893Z,1022.33
2017-05-09T08:23:04.672Z,1022.13
2017-05-09T08:24:14.407Z,1021.98
2017-05-09T08:25:24.140Z,1022
2017-05-09T08:26:33.550Z,1021.66
2017-05-09T08:27:43.279Z,1021.32
2017-05-09T08:28:52.720Z,1021.11
2017-05-09T08:30:03.079Z,1021.18
2017-05-09T08:31:12.787Z,1021.04
2017-05-09T08:32:22.834Z,1021.19
2017-05-09T08:33:32.246Z,1021.24
2017-05-09T08:34:41.661Z,1021.37
2017-05-09T08:35:51.387Z,1021.58
2017-05-09T08:37:01.425Z,1021.73
2017-05-09T08:38:11.143Z,1021.61
2017-05-09T08:39:20.253Z,1021.77
2017-05-09T08:40:29.724Z,1021.76
2017-05-09T08:41:39.463Z,1021.88
2017-05-09T08:42:49.510Z,1021.96
2017-05-09T08:43:59.238Z,1022.14
2017-05-09T08:45:08.966Z,1022.18
2017-05-09T08:46:18.367Z,1022.3
2017-05-09T08:47:28.088Z,1022.54
2017-05-09T08:48:37.822Z,1022.77
2017-05-09T08:49:48.175Z,1022.85
2017-05-09T08:50:57.899Z,1022.74
2017-05-09T08:52:06.991Z,1023.01
2017-05-09T08:53:16.729Z,1023.24
2017-05-09T08:54:26.780Z,1020.9
2017-05-09T08:55:36.501Z,1023.88
2017-05-09T08:56:46.219Z,1024.11
2017-05-09T08:57:56.261Z,1024.12
2017-05-09T08:59:06.309Z,1024.73
2017-05-09T09:00:16.354Z,1025.01
2017-05-09T09:01:25.765Z,1025.2
2017-05-09T09:02:35.488Z,1024.85
2017-05-09T09:03:45.512Z,1025.14
2017-05-09T09:04:55.240Z,1025.67
2017-05-09T09:06:04.971Z,1025.64
2017-05-09T09:07:14.700Z,1026.22
2017-05-09T09:08:24.117Z,1025.67
2017-05-09T09:09:34.190Z,1025.51
2017-05-09T09:10:44.235Z,1026.24
2017-05-09T09:11:53.370Z,1027.08
2017-05-09T09:13:03.410Z,1027.52
2017-05-09T09:14:12.823Z,1027.51
2017-05-09T09:15:22.856Z,1027.92
2017-05-09T09:16:32.896Z,1027.7
2017-05-09T09:17:42.633Z,1028.26
2017-05-09T09:18:52.370Z,1028.73
2017-05-09T09:20:02.413Z,1028.58
2017-05-09T09:21:12.780Z,1028.61
2017-05-09T09:22:22.834Z,1026.86
2017-05-09T09:23:32.562Z,1029.21
2017-05-09T09:24:42.610Z,1029.09
2017-05-09T09:25:52.340Z,1029.09
2017-05-09T09:27:02.068Z,1029.71
2017-05-09T09:28:12.430Z,1029.69
2017-05-09T09:29:21.528Z,1029.57
2017-05-09T09:30:31.261Z,1028.44
2017-05-09T09:31:40.993Z,1029.1
2017-05-09T09:32:50.733Z,1029.86
2017-05-09T09:34:00.154Z,1029.13
2017-05-09T09:35:09.575Z,1028.1
2017-05-09T09:36:18.995Z,1028.24
2017-05-09T09:37:29.078Z,1029
2017-05-09T09:38:38.807Z,1027.98
2017-05-09T09:39:48.863Z,1026.61
2017-05-09T09:40:58.919Z,1025.19
2017-05-09T09:42:08.337Z,1023.3
2017-05-09T09:43:18.054Z,1021.97
2017-05-09T09:44:28.403Z,1021.46
2017-05-09T09:45:38.450Z,1020.81
2017-05-09T09:46:48.513Z,1020.66
2017-05-09T09:47:57.942Z,1020.49
2017-05-09T09:49:08.009Z,1020.42
2017-05-09T09:50:18.375Z,1020.38
2017-05-09T09:51:28.106Z,1020.42
2017-05-09T09:52:37.848Z,1020.52
2017-05-09T09:53:47.576Z,1020.46
2017-05-09T09:54:57.632Z,1020.44
2017-05-09T09:56:08.003Z,1020.26
2017-05-09T09:57:17.412Z,1020.43
2017-05-09T09:58:26.828Z,1019.79
2017-05-09T09:59:36.574Z,1019.72
2017-05-09T10:00:46.309Z,1019.81
2017-05-09T10:01:56.043Z,1020.34
2017-05-09T10:03:06.094Z,1019.68
2017-05-09T10:04:16.141Z,1019.65
2017-05-09T10:05:26.184Z,1020.15
2017-05-09T10:06:36.540Z,1020.12
2017-05-09T10:07:46.312Z,1020.05
2017-05-09T10:08:55.722Z,1020.05
2017-05-09T10:10:05.446Z,1020.07
2017-05-09T10:11:15.181Z,1020
2017-05-09T10:12:24.598Z,1020.13
2017-05-09T10:13:34.012Z,1020.16
2017-05-09T10:14:44.064Z,1020.19
2017-05-09T10:15:54.105Z,1020.19
2017-05-09T10:17:03.532Z,1019.86
2017-05-09T10:18:13.255Z,1019.98
2017-05-09T10:19:22.354Z,1019.98
2017-05-09T10:20:31.453Z,1020.31
2017-05-09T10:21:40.877Z,1019.9
2017-05-09T10:22:50.917Z,1020.17
2017-05-09T10:24:00.345Z,1019.76
2017-05-09T10:25:10.394Z,1019.8
2017-05-09T10:26:20.434Z,1019.84
2017-05-09T10:27:30.484Z,1020.05
2017-05-09T10:28:40.851Z,1019.75
2017-05-09T10:29:50.890Z,1019.64
2017-05-09T10:31:00.952Z,1019.65
2017-05-09T10:32:10.380Z,1019.61
2017-05-09T10:33:20.147Z,1019.94
2017-05-09T10:34:30.194Z,1019.91
2017-05-09T10:35:39.616Z,1019.65
2017-05-09T10:36:49.073Z,1019.75
2017-05-09T10:39:41.242Z,1019.54
2017-05-09T10:40:51.270Z,1019.48
2017-05-09T10:42:01.308Z,1019.48
2017-05-09T10:43:11.651Z,1019.51
2017-05-09T10:44:21.352Z,1019.52
2017-05-09T10:45:30.744Z,1019.51
2017-05-09T10:46:40.442Z,1019.44
2017-05-09T10:47:50.155Z,1019.37
2017-05-09T10:49:00.175Z,1019.72
2017-05-09T10:50:10.204Z,1019.34
2017-05-09T10:51:20.549Z,1019.26
2017-05-09T10:52:30.612Z,1019.28
2017-05-09T10:53:40.340Z,1019.2
2017-05-09T10:54:49.462Z,1019.28
2017-05-09T10:55:59.800Z,1019.3
2017-05-09T10:57:09.230Z,1019.35
2017-05-09T10:58:18.627Z,1019.48
2017-05-09T10:59:28.658Z,1019.38
2017-05-09T11:00:37.423Z,1019.32
2017-05-09T11:01:46.818Z,1019.27
2017-05-09T11:02:56.840Z,1019.2
2017-05-09T11:04:06.548Z,1019.32
2017-05-09T11:05:15.947Z,1019.28
2017-05-09T11:06:25.354Z,1019.32
2017-05-09T11:07:35.380Z,1019.35
2017-05-09T11:08:45.099Z,1019.35
2017-05-09T11:09:53.874Z,1019.33
2017-05-09T11:11:03.599Z,1019.34
2017-05-09T11:12:12.992Z,1019.29
2017-05-09T11:13:22.697Z,1019.18
2017-05-09T11:14:32.400Z,1019.21
2017-05-09T11:15:42.424Z,1019.14
2017-05-09T11:16:51.502Z,1019.13
2017-05-09T11:18:00.899Z,1019.17
2017-05-09T11:19:10.617Z,1019.23
2017-05-09T11:20:20.951Z,1019.6
2017-05-09T11:21:31.299Z,1019.14
2017-05-09T11:22:41.315Z,1019.15
2017-05-09T11:23:50.714Z,1019.16
2017-05-09T11:25:00.421Z,1019.11
2017-05-09T11:26:10.756Z,1019.09
2017-05-09T11:27:20.455Z,1019.13
2017-05-09T11:28:30.163Z,1019.11
2017-05-09T11:29:39.878Z,1019.07
2017-05-09T11:30:49.894Z,1019.12
2017-05-09T11:31:59.918Z,1019.08
2017-05-09T11:33:09.626Z,1019.07
2017-05-09T11:34:19.665Z,1019.08
2017-05-09T11:35:29.380Z,1019.04
2017-05-09T11:36:39.093Z,1018.94
2017-05-09T11:37:48.496Z,1018.96
2017-05-09T11:38:58.222Z,1018.91
2017-05-09T11:40:08.252Z,1018.87
2017-05-09T11:41:18.271Z,1018.81
2017-05-09T11:42:27.670Z,1018.9
2017-05-09T11:43:37.374Z,1018.84
2017-05-09T11:44:47.087Z,1018.83
2017-05-09T11:45:56.475Z,1018.8
2017-05-09T11:47:06.184Z,1018.8
2017-05-09T11:48:15.580Z,1018.8
2017-05-09T11:49:25.289Z,1018.79
2017-05-09T11:52:35.370Z,1018.73
2017-05-09T11:53:44.465Z,1018.69
2017-05-09T11:54:54.180Z,1018.88
2017-05-09T11:56:04.209Z,1018.69
2017-05-09T11:57:13.324Z,1018.81
2017-05-09T11:58:22.733Z,1018.79
2017-05-09T12:02:49.540Z,1018.63
2017-05-09T12:03:59.261Z,1018.63
2017-05-09T12:05:09.609Z,1018.55
2017-05-09T12:06:19.324Z,1018.59
2017-05-09T12:07:29.036Z,1018.55
2017-05-09T12:08:38.445Z,1018.55
2017-05-09T12:09:48.794Z,1018.6
2017-05-09T12:10:58.828Z,1018.57
2017-05-09T12:12:08.861Z,1018.58
2017-05-09T12:13:18.584Z,1018.53
2017-05-09T12:14:28.615Z,1018.48
2017-05-09T12:15:38.648Z,1018.55
2017-05-09T12:16:48.681Z,1018.49
2017-05-09T12:17:58.714Z,1018.54
2017-05-09T12:19:07.486Z,1018.48
2017-05-09T12:20:16.887Z,1018.44
2017-05-09T12:21:26.610Z,1018.4
2017-05-09T12:22:36.946Z,1018.4
2017-05-09T12:23:46.971Z,1018.39
2017-05-09T12:24:56.680Z,1018.36
2017-05-09T12:26:06.415Z,1018.42
2017-05-09T12:27:16.131Z,1018.57
2017-05-09T12:28:26.162Z,1018.41
2017-05-09T12:29:35.884Z,1018.32
2017-05-09T12:30:45.599Z,1018.27
2017-05-09T12:31:55.317Z,1018.37
2017-05-09T12:33:04.087Z,1018.38
2017-05-09T12:34:13.806Z,1018.38
2017-05-09T12:35:23.835Z,1018.37
2017-05-09T12:36:33.865Z,1018.24
2017-05-09T12:37:43.277Z,1018.17
2017-05-09T12:38:52.380Z,1018.1
2017-05-09T12:40:02.408Z,1018.15
2017-05-09T12:41:11.813Z,1018.02
2017-05-09T12:42:21.850Z,1018.08
2017-05-09T12:43:31.563Z,1018.08
2017-05-09T12:44:41.281Z,1018.01
2017-05-09T12:45:51.314Z,1017.98
2017-05-09T12:47:00.715Z,1017.95
2017-05-09T12:48:10.422Z,1018.09
2017-05-09T12:49:20.786Z,1017.95
2017-05-09T12:50:30.501Z,1017.93
2017-05-09T12:51:40.533Z,1017.88
2017-05-09T12:52:50.249Z,1017.97
2017-05-09T12:54:00.597Z,1018.04
2017-05-09T12:55:10.944Z,1018.01
2017-05-09T12:56:20.349Z,1018.01
2017-05-09T12:57:29.437Z,1018
2017-05-09T12:58:39.786Z,1018.01
2017-05-09T12:59:49.537Z,1018.03
2017-05-09T13:00:59.911Z,1018.07
2017-05-09T13:02:09.629Z,1017.98
2017-05-09T13:03:19.661Z,1017.84
2017-05-09T13:04:30.007Z,1017.88
2017-05-09T13:05:39.735Z,1017.85
2017-05-09T13:06:49.449Z,1017.84
2017-05-09T13:07:59.487Z,1017.76
2017-05-09T13:09:09.834Z,1017.72
2017-05-09T13:10:19.554Z,1017.81
2017-05-09T13:11:28.954Z,1017.78
2017-05-09T13:12:38.670Z,1017.77
2017-05-09T13:13:49.018Z,1017.67
2017-05-09T13:14:58.109Z,1017.69
2017-05-09T13:16:07.834Z,1017.83
2017-05-09T13:17:17.237Z,1017.84
2017-05-09T13:18:26.953Z,1017.62
2017-05-09T13:19:36.359Z,1017.53
2017-05-09T13:20:46.388Z,1017.71
2017-05-09T13:21:56.103Z,1017.69
2017-05-09T13:23:05.824Z,1017.63
2017-05-09T13:24:15.544Z,1017.52
2017-05-09T13:25:25.579Z,1017.46
2017-05-09T13:26:35.618Z,1017.44
2017-05-09T13:27:45.333Z,1017.4
2017-05-09T13:28:55.051Z,1017.43
2017-05-09T13:30:05.397Z,1017.47
2017-05-09T13:31:15.427Z,1017.59
2017-05-09T13:32:25.771Z,1017.51
2017-05-09T13:33:35.170Z,1017.43
2017-05-09T13:34:44.884Z,1017.35
2017-05-09T13:35:54.011Z,1017.42
2017-05-09T13:37:03.726Z,1017.32
2017-05-09T13:38:13.135Z,1017.33
2017-05-09T13:39:22.538Z,1017.3
2017-05-09T13:40:32.263Z,1017.27
2017-05-09T13:41:42.290Z,1017.28
2017-05-09T13:42:51.393Z,1017.26
2017-05-09T13:44:01.113Z,1017.33
2017-05-09T13:45:10.830Z,1017.31
2017-05-09T13:46:20.543Z,1017.17
2017-05-09T13:47:30.258Z,1017.16
2017-05-09T13:48:39.982Z,1017.17
2017-05-09T13:49:49.694Z,1017.15
2017-05-09T13:50:59.725Z,1017.29
2017-05-09T13:52:09.152Z,1017.18
2017-05-09T13:53:18.869Z,1017.14
2017-05-09T13:54:28.898Z,1017.1
2017-05-09T13:55:38.934Z,1017.06
2017-05-09T13:56:48.651Z,1017.08
2017-05-09T13:57:58.059Z,1017.11
2017-05-09T13:59:07.460Z,1016.98
2017-05-09T14:00:17.495Z,1016.97
2017-05-09T14:01:27.215Z,1016.9
2017-05-09T14:02:37.239Z,1017
2017-05-09T14:03:47.317Z,1017.05
2017-05-09T14:04:57.048Z,1017.02
2017-05-09T14:06:06.771Z,1016.99
2017-05-09T14:07:16.800Z,1017.02
2017-05-09T14:08:26.203Z,1017.01
2017-05-09T14:09:36.248Z,1017.02
2017-05-09T14:10:46.276Z,1016.98
2017-05-09T14:11:56.309Z,1016.96
2017-05-09T14:13:06.033Z,1017
2017-05-09T14:14:15.450Z,1016.97